sensor_id;sensor_type;location;lat;lon;timestamp;temperature;humidity
4306;DHT22;2166;49.926;8.608;2023-02-12T00:01:16;7.40;77.70
4306;DHT22;2166;49.926;8.608;2023-02-12T00:03:47;7.40;77.80
4306;DHT22;2166;49.926;8.608;2023-02-12T00:06:16;7.50;77.80
4306;DHT22;2166;49.926;8.608;2023-02-12T00:08:47;7.40;77.70
4306;DHT22;2166;49.926;8.608;2023-02-12T00:11:16;7.20;78.00
4306;DHT22;2166;49.926;8.608;2023-02-12T00:13:45;7.20;78.30
4306;DHT22;2166;49.926;8.608;2023-02-12T00:16:15;7.20;78.30
4306;DHT22;2166;49.926;8.608;2023-02-12T00:18:45;7.30;78.20
4306;DHT22;2166;49.926;8.608;2023-02-12T00:25:15;7.40;77.80
4306;DHT22;2166;49.926;8.608;2023-02-12T00:27:44;7.40;77.80
4306;DHT22;2166;49.926;8.608;2023-02-12T00:30:18;7.50;77.90
4306;DHT22;2166;49.926;8.608;2023-02-12T00:33:00;7.50;77.70
4306;DHT22;2166;49.926;8.608;2023-02-12T00:35:36;7.60;77.60
4306;DHT22;2166;49.926;8.608;2023-02-12T00:38:38;7.70;77.40
4306;DHT22;2166;49.926;8.608;2023-02-12T00:41:39;7.70;77.50
4306;DHT22;2166;49.926;8.608;2023-02-12T00:44:07;7.90;77.30
4306;DHT22;2166;49.926;8.608;2023-02-12T00:46:37;7.80;77.10
4306;DHT22;2166;49.926;8.608;2023-02-12T00:49:15;7.80;77.20
4306;DHT22;2166;49.926;8.608;2023-02-12T00:51:46;7.80;77.30
4306;DHT22;2166;49.926;8.608;2023-02-12T00:54:15;7.90;77.30
4306;DHT22;2166;49.926;8.608;2023-02-12T00:56:44;8.00;76.90
4306;DHT22;2166;49.926;8.608;2023-02-12T00:59:13;8.00;76.70
4306;DHT22;2166;49.926;8.608;2023-02-12T01:01:41;7.90;76.90
4306;DHT22;2166;49.926;8.608;2023-02-12T01:04:09;7.90;77.10
4306;DHT22;2166;49.926;8.608;2023-02-12T01:06:39;7.90;77.00
4306;DHT22;2166;49.926;8.608;2023-02-12T01:09:08;7.90;76.90
4306;DHT22;2166;49.926;8.608;2023-02-12T01:11:38;8.00;76.90
4306;DHT22;2166;49.926;8.608;2023-02-12T01:14:07;8.00;76.80
4306;DHT22;2166;49.926;8.608;2023-02-12T01:16:35;8.00;76.80
4306;DHT22;2166;49.926;8.608;2023-02-12T01:19:04;8.10;76.80
4306;DHT22;2166;49.926;8.608;2023-02-12T01:21:33;8.10;76.70
4306;DHT22;2166;49.926;8.608;2023-02-12T01:24:02;8.10;76.50
4306;DHT22;2166;49.926;8.608;2023-02-12T01:26:34;8.00;76.40
4306;DHT22;2166;49.926;8.608;2023-02-12T01:29:05;7.80;76.80
4306;DHT22;2166;49.926;8.608;2023-02-12T01:31:35;7.80;77.20
4306;DHT22;2166;49.926;8.608;2023-02-12T01:34:05;7.80;77.20
4306;DHT22;2166;49.926;8.608;2023-02-12T01:36:34;7.90;77.20
4306;DHT22;2166;49.926;8.608;2023-02-12T01:39:04;7.90;77.00
4306;DHT22;2166;49.926;8.608;2023-02-12T01:41:35;7.90;76.90
4306;DHT22;2166;49.926;8.608;2023-02-12T01:44:07;7.80;77.00
4306;DHT22;2166;49.926;8.608;2023-02-12T01:46:36;7.80;77.20
4306;DHT22;2166;49.926;8.608;2023-02-12T01:49:06;7.70;77.20
4306;DHT22;2166;49.926;8.608;2023-02-12T01:51:35;7.70;77.40
4306;DHT22;2166;49.926;8.608;2023-02-12T01:54:04;7.60;77.40
4306;DHT22;2166;49.926;8.608;2023-02-12T01:56:35;7.50;77.60
4306;DHT22;2166;49.926;8.608;2023-02-12T01:59:04;7.40;77.80
4306;DHT22;2166;49.926;8.608;2023-02-12T02:01:32;7.30;78.10
4306;DHT22;2166;49.926;8.608;2023-02-12T02:04:03;7.30;78.40
4306;DHT22;2166;49.926;8.608;2023-02-12T02:06:33;7.30;78.30
4306;DHT22;2166;49.926;8.608;2023-02-12T02:09:02;7.40;78.40
4306;DHT22;2166;49.926;8.608;2023-02-12T02:11:32;7.40;78.10
4306;DHT22;2166;49.926;8.608;2023-02-12T02:14:19;7.50;77.90
4306;DHT22;2166;49.926;8.608;2023-02-12T02:17:05;7.60;77.90
4306;DHT22;2166;49.926;8.608;2023-02-12T02:19:43;7.60;77.70
4306;DHT22;2166;49.926;8.608;2023-02-12T02:22:21;7.70;77.70
4306;DHT22;2166;49.926;8.608;2023-02-12T02:27:41;7.80;77.60
4306;DHT22;2166;49.926;8.608;2023-02-12T02:32:58;7.80;77.60
4306;DHT22;2166;49.926;8.608;2023-02-12T02:35:31;7.90;77.50
4306;DHT22;2166;49.926;8.608;2023-02-12T02:38:06;7.90;77.40
4306;DHT22;2166;49.926;8.608;2023-02-12T02:40:36;8.00;77.20
4306;DHT22;2166;49.926;8.608;2023-02-12T02:43:06;8.10;76.90
4306;DHT22;2166;49.926;8.608;2023-02-12T02:45:37;8.10;76.80
4306;DHT22;2166;49.926;8.608;2023-02-12T02:48:11;8.20;76.70
4306;DHT22;2166;49.926;8.608;2023-02-12T02:50:43;8.20;76.60
4306;DHT22;2166;49.926;8.608;2023-02-12T02:53:13;8.20;76.50
4306;DHT22;2166;49.926;8.608;2023-02-12T02:55:45;7.90;76.60
4306;DHT22;2166;49.926;8.608;2023-02-12T02:58:16;7.70;77.10
4306;DHT22;2166;49.926;8.608;2023-02-12T03:00:47;7.70;77.30
4306;DHT22;2166;49.926;8.608;2023-02-12T03:03:18;7.70;77.40
4306;DHT22;2166;49.926;8.608;2023-02-12T03:05:49;7.70;77.40
4306;DHT22;2166;49.926;8.608;2023-02-12T03:08:22;7.60;77.50
4306;DHT22;2166;49.926;8.608;2023-02-12T03:10:52;7.60;77.70
4306;DHT22;2166;49.926;8.608;2023-02-12T03:13:22;7.50;77.90
4306;DHT22;2166;49.926;8.608;2023-02-12T03:15:54;7.30;78.10
4306;DHT22;2166;49.926;8.608;2023-02-12T03:18:27;7.20;78.40
4306;DHT22;2166;49.926;8.608;2023-02-12T03:20:57;7.20;78.50
4306;DHT22;2166;49.926;8.608;2023-02-12T03:23:28;7.20;78.50
4306;DHT22;2166;49.926;8.608;2023-02-12T03:25:58;7.20;78.60
4306;DHT22;2166;49.926;8.608;2023-02-12T03:28:31;7.10;78.60
4306;DHT22;2166;49.926;8.608;2023-02-12T03:31:02;7.00;79.00
4306;DHT22;2166;49.926;8.608;2023-02-12T03:33:36;7.00;79.20
4306;DHT22;2166;49.926;8.608;2023-02-12T03:36:09;7.00;79.30
4306;DHT22;2166;49.926;8.608;2023-02-12T03:38:43;7.20;79.40
4306;DHT22;2166;49.926;8.608;2023-02-12T03:41:13;7.30;78.90
4306;DHT22;2166;49.926;8.608;2023-02-12T03:43:46;7.40;78.80
4306;DHT22;2166;49.926;8.608;2023-02-12T03:46:18;7.40;78.70
4306;DHT22;2166;49.926;8.608;2023-02-12T03:48:51;7.50;78.50
4306;DHT22;2166;49.926;8.608;2023-02-12T03:51:24;7.50;78.30
4306;DHT22;2166;49.926;8.608;2023-02-12T03:53:53;7.50;78.30
4306;DHT22;2166;49.926;8.608;2023-02-12T03:56:22;7.40;78.40
4306;DHT22;2166;49.926;8.608;2023-02-12T03:58:52;7.40;78.40
4306;DHT22;2166;49.926;8.608;2023-02-12T04:01:22;7.40;78.50
4306;DHT22;2166;49.926;8.608;2023-02-12T04:03:51;7.40;78.40
4306;DHT22;2166;49.926;8.608;2023-02-12T04:06:21;7.40;78.60
4306;DHT22;2166;49.926;8.608;2023-02-12T04:08:50;7.40;78.60
4306;DHT22;2166;49.926;8.608;2023-02-12T04:11:20;7.40;78.70
4306;DHT22;2166;49.926;8.608;2023-02-12T04:13:55;7.40;78.80
4306;DHT22;2166;49.926;8.608;2023-02-12T04:16:30;7.40;78.70
4306;DHT22;2166;49.926;8.608;2023-02-12T04:19:04;7.40;78.70
4306;DHT22;2166;49.926;8.608;2023-02-12T04:21:37;7.50;78.80
4306;DHT22;2166;49.926;8.608;2023-02-12T04:24:12;7.50;78.70
4306;DHT22;2166;49.926;8.608;2023-02-12T04:26:47;7.50;78.70
4306;DHT22;2166;49.926;8.608;2023-02-12T04:29:17;7.50;78.70
4306;DHT22;2166;49.926;8.608;2023-02-12T04:31:50;7.50;78.70
4306;DHT22;2166;49.926;8.608;2023-02-12T04:34:25;7.60;78.70
4306;DHT22;2166;49.926;8.608;2023-02-12T04:36:55;7.70;78.70
4306;DHT22;2166;49.926;8.608;2023-02-12T04:39:26;7.80;78.30
4306;DHT22;2166;49.926;8.608;2023-02-12T04:41:57;7.80;78.20
4306;DHT22;2166;49.926;8.608;2023-02-12T04:44:27;7.90;78.10
4306;DHT22;2166;49.926;8.608;2023-02-12T04:46:57;8.00;78.00
4306;DHT22;2166;49.926;8.608;2023-02-12T04:49:27;8.00;77.80
4306;DHT22;2166;49.926;8.608;2023-02-12T04:51:55;8.00;77.80
4306;DHT22;2166;49.926;8.608;2023-02-12T04:54:24;8.00;77.80
4306;DHT22;2166;49.926;8.608;2023-02-12T04:56:52;8.00;77.80
4306;DHT22;2166;49.926;8.608;2023-02-12T04:59:20;7.90;77.80
4306;DHT22;2166;49.926;8.608;2023-02-12T05:01:49;7.90;77.90
4306;DHT22;2166;49.926;8.608;2023-02-12T05:04:18;7.90;78.00
4306;DHT22;2166;49.926;8.608;2023-02-12T05:06:48;7.90;78.10
4306;DHT22;2166;49.926;8.608;2023-02-12T05:09:17;7.90;78.00
4306;DHT22;2166;49.926;8.608;2023-02-12T05:11:45;8.00;78.10
4306;DHT22;2166;49.926;8.608;2023-02-12T05:14:14;8.00;78.00
4306;DHT22;2166;49.926;8.608;2023-02-12T05:16:42;8.10;77.90
4306;DHT22;2166;49.926;8.608;2023-02-12T05:19:10;8.10;77.80
4306;DHT22;2166;49.926;8.608;2023-02-12T05:21:39;8.00;77.80
4306;DHT22;2166;49.926;8.608;2023-02-12T05:24:09;8.00;77.80
4306;DHT22;2166;49.926;8.608;2023-02-12T05:26:37;8.00;77.80
4306;DHT22;2166;49.926;8.608;2023-02-12T05:29:07;8.00;77.80
4306;DHT22;2166;49.926;8.608;2023-02-12T05:31:40;8.00;77.80
4306;DHT22;2166;49.926;8.608;2023-02-12T05:34:48;8.10;77.70
4306;DHT22;2166;49.926;8.608;2023-02-12T05:37:20;8.10;77.70
4306;DHT22;2166;49.926;8.608;2023-02-12T05:46:29;8.10;77.50
4306;DHT22;2166;49.926;8.608;2023-02-12T05:48:57;8.00;77.60
4306;DHT22;2166;49.926;8.608;2023-02-12T05:51:26;7.80;77.70
4306;DHT22;2166;49.926;8.608;2023-02-12T05:53:55;7.80;78.00
4306;DHT22;2166;49.926;8.608;2023-02-12T05:56:25;7.50;78.10
4306;DHT22;2166;49.926;8.608;2023-02-12T05:58:54;7.30;78.80
4306;DHT22;2166;49.926;8.608;2023-02-12T06:01:23;7.30;78.80
4306;DHT22;2166;49.926;8.608;2023-02-12T06:03:54;7.30;78.90
4306;DHT22;2166;49.926;8.608;2023-02-12T06:06:23;7.30;79.00
4306;DHT22;2166;49.926;8.608;2023-02-12T06:08:51;7.40;78.90
4306;DHT22;2166;49.926;8.608;2023-02-12T06:11:20;7.50;78.90
4306;DHT22;2166;49.926;8.608;2023-02-12T06:13:48;7.50;78.80
4306;DHT22;2166;49.926;8.608;2023-02-12T06:16:17;7.60;78.80
4306;DHT22;2166;49.926;8.608;2023-02-12T06:18:46;7.60;78.70
4306;DHT22;2166;49.926;8.608;2023-02-12T06:21:16;7.60;78.60
4306;DHT22;2166;49.926;8.608;2023-02-12T06:23:45;7.60;78.50
4306;DHT22;2166;49.926;8.608;2023-02-12T06:26:14;7.60;78.50
4306;DHT22;2166;49.926;8.608;2023-02-12T06:28:42;7.60;78.40
4306;DHT22;2166;49.926;8.608;2023-02-12T06:31:16;7.70;78.40
4306;DHT22;2166;49.926;8.608;2023-02-12T06:33:44;7.70;78.20
4306;DHT22;2166;49.926;8.608;2023-02-12T06:36:13;7.70;78.10
4306;DHT22;2166;49.926;8.608;2023-02-12T06:38:42;7.70;78.10
4306;DHT22;2166;49.926;8.608;2023-02-12T06:41:11;7.50;78.40
4306;DHT22;2166;49.926;8.608;2023-02-12T06:43:40;7.50;78.40
4306;DHT22;2166;49.926;8.608;2023-02-12T06:46:08;7.60;78.20
4306;DHT22;2166;49.926;8.608;2023-02-12T06:48:37;7.50;78.00
4306;DHT22;2166;49.926;8.608;2023-02-12T06:51:06;7.50;78.20
4306;DHT22;2166;49.926;8.608;2023-02-12T06:53:34;7.40;78.30
4306;DHT22;2166;49.926;8.608;2023-02-12T06:56:05;7.40;78.30
4306;DHT22;2166;49.926;8.608;2023-02-12T06:58:37;7.40;78.40
4306;DHT22;2166;49.926;8.608;2023-02-12T07:01:09;7.40;78.40
4306;DHT22;2166;49.926;8.608;2023-02-12T07:03:39;7.40;78.50
4306;DHT22;2166;49.926;8.608;2023-02-12T07:06:08;7.40;78.60
4306;DHT22;2166;49.926;8.608;2023-02-12T07:08:36;7.40;78.60
4306;DHT22;2166;49.926;8.608;2023-02-12T07:11:07;7.50;78.70
4306;DHT22;2166;49.926;8.608;2023-02-12T07:13:35;7.50;78.70
4306;DHT22;2166;49.926;8.608;2023-02-12T07:16:04;7.50;78.80
4306;DHT22;2166;49.926;8.608;2023-02-12T07:18:33;7.60;78.90
4306;DHT22;2166;49.926;8.608;2023-02-12T07:21:01;7.80;78.80
4306;DHT22;2166;49.926;8.608;2023-02-12T07:23:30;8.00;78.70
4306;DHT22;2166;49.926;8.608;2023-02-12T07:26:00;8.20;78.50
4306;DHT22;2166;49.926;8.608;2023-02-12T07:28:30;8.30;78.00
4306;DHT22;2166;49.926;8.608;2023-02-12T07:31:04;8.30;77.80
4306;DHT22;2166;49.926;8.608;2023-02-12T07:33:34;8.30;77.70
4306;DHT22;2166;49.926;8.608;2023-02-12T07:36:02;8.30;77.80
4306;DHT22;2166;49.926;8.608;2023-02-12T07:38:31;8.30;77.80
4306;DHT22;2166;49.926;8.608;2023-02-12T07:41:06;8.50;77.70
4306;DHT22;2166;49.926;8.608;2023-02-12T07:43:38;8.70;77.20
4306;DHT22;2166;49.926;8.608;2023-02-12T07:46:07;8.70;77.00
4306;DHT22;2166;49.926;8.608;2023-02-12T07:48:40;8.70;77.10
4306;DHT22;2166;49.926;8.608;2023-02-12T07:51:09;8.80;77.00
4306;DHT22;2166;49.926;8.608;2023-02-12T07:53:38;8.80;76.90
4306;DHT22;2166;49.926;8.608;2023-02-12T07:56:07;8.80;76.90
4306;DHT22;2166;49.926;8.608;2023-02-12T07:58:37;8.90;76.80
4306;DHT22;2166;49.926;8.608;2023-02-12T08:01:10;9.00;76.90
4306;DHT22;2166;49.926;8.608;2023-02-12T08:03:39;9.10;76.90
4306;DHT22;2166;49.926;8.608;2023-02-12T08:06:08;9.20;76.50
4306;DHT22;2166;49.926;8.608;2023-02-12T08:08:36;9.30;76.20
4306;DHT22;2166;49.926;8.608;2023-02-12T08:11:05;9.40;76.00
4306;DHT22;2166;49.926;8.608;2023-02-12T08:13:35;9.30;75.80
4306;DHT22;2166;49.926;8.608;2023-02-12T08:16:06;9.30;76.00
4306;DHT22;2166;49.926;8.608;2023-02-12T08:18:35;9.30;76.20
4306;DHT22;2166;49.926;8.608;2023-02-12T08:21:04;9.40;76.10
4306;DHT22;2166;49.926;8.608;2023-02-12T08:23:34;9.50;76.20
4306;DHT22;2166;49.926;8.608;2023-02-12T08:26:04;9.60;76.00
4306;DHT22;2166;49.926;8.608;2023-02-12T08:28:32;9.60;76.10
4306;DHT22;2166;49.926;8.608;2023-02-12T08:31:01;9.80;76.00
4306;DHT22;2166;49.926;8.608;2023-02-12T08:33:34;9.90;75.90
4306;DHT22;2166;49.926;8.608;2023-02-12T08:36:04;9.90;75.60
4306;DHT22;2166;49.926;8.608;2023-02-12T08:38:33;10.00;75.70
4306;DHT22;2166;49.926;8.608;2023-02-12T08:41:02;10.10;75.50
4306;DHT22;2166;49.926;8.608;2023-02-12T08:43:31;10.20;75.30
4306;DHT22;2166;49.926;8.608;2023-02-12T08:46:02;10.20;75.20
4306;DHT22;2166;49.926;8.608;2023-02-12T08:48:31;10.40;75.30
4306;DHT22;2166;49.926;8.608;2023-02-12T08:51:07;10.50;75.10
4306;DHT22;2166;49.926;8.608;2023-02-12T08:53:35;10.50;75.10
4306;DHT22;2166;49.926;8.608;2023-02-12T08:56:06;10.50;75.00
4306;DHT22;2166;49.926;8.608;2023-02-12T08:58:35;10.50;75.10
4306;DHT22;2166;49.926;8.608;2023-02-12T09:01:04;10.50;75.40
4306;DHT22;2166;49.926;8.608;2023-02-12T09:03:38;10.60;75.20
4306;DHT22;2166;49.926;8.608;2023-02-12T09:06:09;10.80;75.30
4306;DHT22;2166;49.926;8.608;2023-02-12T09:08:38;11.00;74.90
4306;DHT22;2166;49.926;8.608;2023-02-12T09:11:07;11.10;74.60
4306;DHT22;2166;49.926;8.608;2023-02-12T09:13:36;11.40;74.30
4306;DHT22;2166;49.926;8.608;2023-02-12T09:16:05;11.40;74.10
4306;DHT22;2166;49.926;8.608;2023-02-12T09:18:34;11.40;74.10
4306;DHT22;2166;49.926;8.608;2023-02-12T09:21:04;11.20;74.50
4306;DHT22;2166;49.926;8.608;2023-02-12T09:23:34;11.20;74.70
4306;DHT22;2166;49.926;8.608;2023-02-12T09:26:03;11.20;74.70
4306;DHT22;2166;49.926;8.608;2023-02-12T09:28:32;11.30;74.70
4306;DHT22;2166;49.926;8.608;2023-02-12T09:31:03;11.20;74.60
4306;DHT22;2166;49.926;8.608;2023-02-12T09:33:31;11.10;74.80
4306;DHT22;2166;49.926;8.608;2023-02-12T09:36:01;11.10;75.00
4306;DHT22;2166;49.926;8.608;2023-02-12T09:38:30;11.10;75.20
4306;DHT22;2166;49.926;8.608;2023-02-12T09:41:11;11.40;75.20
4306;DHT22;2166;49.926;8.608;2023-02-12T09:43:43;11.60;74.40
4306;DHT22;2166;49.926;8.608;2023-02-12T09:46:13;11.50;74.30
4306;DHT22;2166;49.926;8.608;2023-02-12T09:48:47;11.60;74.30
4306;DHT22;2166;49.926;8.608;2023-02-12T09:51:18;11.60;74.10
4306;DHT22;2166;49.926;8.608;2023-02-12T09:53:47;11.60;74.00
4306;DHT22;2166;49.926;8.608;2023-02-12T09:56:18;11.70;74.40
4306;DHT22;2166;49.926;8.608;2023-02-12T09:58:49;11.90;74.10
4306;DHT22;2166;49.926;8.608;2023-02-12T10:01:20;11.90;73.80
4306;DHT22;2166;49.926;8.608;2023-02-12T10:03:50;11.90;74.00
4306;DHT22;2166;49.926;8.608;2023-02-12T10:06:20;11.90;73.80
4306;DHT22;2166;49.926;8.608;2023-02-12T10:08:53;11.90;74.00
4306;DHT22;2166;49.926;8.608;2023-02-12T10:11:27;12.00;73.60
4306;DHT22;2166;49.926;8.608;2023-02-12T10:14:00;12.00;73.80
4306;DHT22;2166;49.926;8.608;2023-02-12T10:16:35;12.20;73.70
4306;DHT22;2166;49.926;8.608;2023-02-12T10:19:11;12.30;73.60
4306;DHT22;2166;49.926;8.608;2023-02-12T10:21:44;12.30;73.30
4306;DHT22;2166;49.926;8.608;2023-02-12T10:24:22;12.30;73.40
4306;DHT22;2166;49.926;8.608;2023-02-12T10:26:54;12.60;73.40
4306;DHT22;2166;49.926;8.608;2023-02-12T10:29:28;13.10;73.00
4306;DHT22;2166;49.926;8.608;2023-02-12T10:31:59;13.20;72.50
4306;DHT22;2166;49.926;8.608;2023-02-12T10:34:29;13.40;72.10
4306;DHT22;2166;49.926;8.608;2023-02-12T10:37:00;13.20;72.20
4306;DHT22;2166;49.926;8.608;2023-02-12T10:39:30;13.20;72.30
4306;DHT22;2166;49.926;8.608;2023-02-12T10:42:02;13.60;72.20
4306;DHT22;2166;49.926;8.608;2023-02-12T10:44:35;14.20;71.60
4306;DHT22;2166;49.926;8.608;2023-02-12T10:47:03;14.40;70.70
4306;DHT22;2166;49.926;8.608;2023-02-12T10:49:31;14.60;70.70
4306;DHT22;2166;49.926;8.608;2023-02-12T10:52:04;14.90;70.10
4306;DHT22;2166;49.926;8.608;2023-02-12T10:54:36;15.20;69.70
4306;DHT22;2166;49.926;8.608;2023-02-12T10:57:09;15.70;68.90
4306;DHT22;2166;49.926;8.608;2023-02-12T10:59:37;16.10;67.90
4306;DHT22;2166;49.926;8.608;2023-02-12T11:02:16;16.40;66.80
4306;DHT22;2166;49.926;8.608;2023-02-12T11:04:45;16.40;66.90
4306;DHT22;2166;49.926;8.608;2023-02-12T11:07:13;16.70;66.10
4306;DHT22;2166;49.926;8.608;2023-02-12T11:09:43;16.90;65.40
4306;DHT22;2166;49.926;8.608;2023-02-12T11:12:18;17.10;64.70
4306;DHT22;2166;49.926;8.608;2023-02-12T11:14:48;17.10;63.90
4306;DHT22;2166;49.926;8.608;2023-02-12T11:17:19;17.20;64.60
4306;DHT22;2166;49.926;8.608;2023-02-12T11:20:05;17.40;64.00
4306;DHT22;2166;49.926;8.608;2023-02-12T11:22:36;17.50;63.50
4306;DHT22;2166;49.926;8.608;2023-02-12T11:25:09;17.60;63.40
4306;DHT22;2166;49.926;8.608;2023-02-12T11:27:43;17.70;63.00
4306;DHT22;2166;49.926;8.608;2023-02-12T11:30:13;17.90;62.60
4306;DHT22;2166;49.926;8.608;2023-02-12T11:32:44;17.90;62.30
4306;DHT22;2166;49.926;8.608;2023-02-12T11:35:17;17.80;62.20
4306;DHT22;2166;49.926;8.608;2023-02-12T11:37:51;17.90;62.00
4306;DHT22;2166;49.926;8.608;2023-02-12T11:40:21;18.00;61.90
4306;DHT22;2166;49.926;8.608;2023-02-12T11:42:53;18.20;61.70
4306;DHT22;2166;49.926;8.608;2023-02-12T11:45:24;18.50;60.60
4306;DHT22;2166;49.926;8.608;2023-02-12T11:47:54;18.40;60.70
4306;DHT22;2166;49.926;8.608;2023-02-12T11:50:24;18.30;60.80
4306;DHT22;2166;49.926;8.608;2023-02-12T11:52:55;18.10;61.20
4306;DHT22;2166;49.926;8.608;2023-02-12T11:55:25;18.10;61.10
4306;DHT22;2166;49.926;8.608;2023-02-12T11:58:02;18.20;61.10
4306;DHT22;2166;49.926;8.608;2023-02-12T12:00:31;18.20;60.40
4306;DHT22;2166;49.926;8.608;2023-02-12T12:03:00;17.90;61.40
4306;DHT22;2166;49.926;8.608;2023-02-12T12:05:30;17.70;61.30
4306;DHT22;2166;49.926;8.608;2023-02-12T12:08:04;17.60;62.10
4306;DHT22;2166;49.926;8.608;2023-02-12T12:10:35;17.70;62.30
4306;DHT22;2166;49.926;8.608;2023-02-12T12:13:11;18.00;61.50
4306;DHT22;2166;49.926;8.608;2023-02-12T12:15:42;18.10;61.10
4306;DHT22;2166;49.926;8.608;2023-02-12T12:18:33;18.30;60.90
4306;DHT22;2166;49.926;8.608;2023-02-12T12:21:24;18.30;61.10
4306;DHT22;2166;49.926;8.608;2023-02-12T12:23:56;18.30;61.00
4306;DHT22;2166;49.926;8.608;2023-02-12T12:26:26;18.20;61.30
4306;DHT22;2166;49.926;8.608;2023-02-12T12:28:59;18.20;61.10
4306;DHT22;2166;49.926;8.608;2023-02-12T12:31:29;18.00;61.00
4306;DHT22;2166;49.926;8.608;2023-02-12T12:34:01;18.00;61.30
4306;DHT22;2166;49.926;8.608;2023-02-12T12:36:40;18.00;61.60
4306;DHT22;2166;49.926;8.608;2023-02-12T12:39:16;17.80;61.80
4306;DHT22;2166;49.926;8.608;2023-02-12T12:42:09;17.70;62.00
4306;DHT22;2166;49.926;8.608;2023-02-12T12:44:44;17.50;62.30
4306;DHT22;2166;49.926;8.608;2023-02-12T12:47:19;17.40;63.10
4306;DHT22;2166;49.926;8.608;2023-02-12T12:49:54;17.40;62.70
4306;DHT22;2166;49.926;8.608;2023-02-12T12:52:39;17.40;62.70
4306;DHT22;2166;49.926;8.608;2023-02-12T12:58:03;17.20;63.10
4306;DHT22;2166;49.926;8.608;2023-02-12T13:00:55;17.00;63.30
4306;DHT22;2166;49.926;8.608;2023-02-12T13:06:24;17.00;64.00
4306;DHT22;2166;49.926;8.608;2023-02-12T13:09:05;17.00;63.70
4306;DHT22;2166;49.926;8.608;2023-02-12T13:11:39;17.00;64.20
4306;DHT22;2166;49.926;8.608;2023-02-12T13:14:21;17.10;63.80
4306;DHT22;2166;49.926;8.608;2023-02-12T13:16:56;16.90;63.90
4306;DHT22;2166;49.926;8.608;2023-02-12T13:19:31;16.90;64.30
4306;DHT22;2166;49.926;8.608;2023-02-12T13:22:04;16.90;63.60
4306;DHT22;2166;49.926;8.608;2023-02-12T13:24:37;17.00;63.60
4306;DHT22;2166;49.926;8.608;2023-02-12T13:27:11;17.10;63.50
4306;DHT22;2166;49.926;8.608;2023-02-12T13:29:40;17.30;63.00
4306;DHT22;2166;49.926;8.608;2023-02-12T13:32:13;17.40;63.00
4306;DHT22;2166;49.926;8.608;2023-02-12T13:34:42;17.50;62.60
4306;DHT22;2166;49.926;8.608;2023-02-12T13:37:12;17.60;62.00
4306;DHT22;2166;49.926;8.608;2023-02-12T13:39:42;17.70;61.80
4306;DHT22;2166;49.926;8.608;2023-02-12T13:42:15;17.70;62.00
4306;DHT22;2166;49.926;8.608;2023-02-12T13:44:50;17.90;61.60
4306;DHT22;2166;49.926;8.608;2023-02-12T13:47:28;17.50;61.10
4306;DHT22;2166;49.926;8.608;2023-02-12T13:49:59;17.20;62.10
4306;DHT22;2166;49.926;8.608;2023-02-12T13:52:29;17.20;63.10
4306;DHT22;2166;49.926;8.608;2023-02-12T13:55:03;17.40;62.50
4306;DHT22;2166;49.926;8.608;2023-02-12T13:57:37;17.60;62.00
4306;DHT22;2166;49.926;8.608;2023-02-12T14:00:10;17.90;61.50
4306;DHT22;2166;49.926;8.608;2023-02-12T14:02:58;18.30;60.70
4306;DHT22;2166;49.926;8.608;2023-02-12T14:05:35;19.30;58.20
4306;DHT22;2166;49.926;8.608;2023-02-12T14:08:05;19.50;58.20
4306;DHT22;2166;49.926;8.608;2023-02-12T14:10:35;20.10;56.30
4306;DHT22;2166;49.926;8.608;2023-02-12T14:13:12;20.60;55.00
4306;DHT22;2166;49.926;8.608;2023-02-12T14:15:42;20.80;54.10
4306;DHT22;2166;49.926;8.608;2023-02-12T14:18:24;20.40;55.00
4306;DHT22;2166;49.926;8.608;2023-02-12T14:23:39;19.80;56.40
4306;DHT22;2166;49.926;8.608;2023-02-12T14:26:08;19.60;57.00
4306;DHT22;2166;49.926;8.608;2023-02-12T14:28:42;19.60;56.80
4306;DHT22;2166;49.926;8.608;2023-02-12T14:37:13;19.60;56.50
4306;DHT22;2166;49.926;8.608;2023-02-12T14:39:43;19.30;57.30
4306;DHT22;2166;49.926;8.608;2023-02-12T14:44:59;19.10;57.20
4306;DHT22;2166;49.926;8.608;2023-02-12T14:50:16;19.10;57.30
4306;DHT22;2166;49.926;8.608;2023-02-12T14:52:51;19.30;57.60
4306;DHT22;2166;49.926;8.608;2023-02-12T14:55:23;19.10;57.80
4306;DHT22;2166;49.926;8.608;2023-02-12T14:57:54;19.30;57.80
4306;DHT22;2166;49.926;8.608;2023-02-12T15:00:25;19.50;57.40
4306;DHT22;2166;49.926;8.608;2023-02-12T15:02:56;19.60;56.50
4306;DHT22;2166;49.926;8.608;2023-02-12T15:05:29;19.40;57.20
4306;DHT22;2166;49.926;8.608;2023-02-12T15:08:02;19.50;57.20
4306;DHT22;2166;49.926;8.608;2023-02-12T15:10:33;19.20;57.00
4306;DHT22;2166;49.926;8.608;2023-02-12T15:13:06;19.00;57.90
4306;DHT22;2166;49.926;8.608;2023-02-12T15:15:36;18.90;58.10
4306;DHT22;2166;49.926;8.608;2023-02-12T15:18:10;18.70;58.30
4306;DHT22;2166;49.926;8.608;2023-02-12T15:20:42;18.50;58.70
4306;DHT22;2166;49.926;8.608;2023-02-12T15:23:33;18.30;59.40
4306;DHT22;2166;49.926;8.608;2023-02-12T15:26:02;17.70;60.60
4306;DHT22;2166;49.926;8.608;2023-02-12T15:28:31;17.20;62.00
4306;DHT22;2166;49.926;8.608;2023-02-12T15:31:01;16.90;62.60
4306;DHT22;2166;49.926;8.608;2023-02-12T15:33:31;16.70;63.40
4306;DHT22;2166;49.926;8.608;2023-02-12T15:36:01;16.30;64.30
4306;DHT22;2166;49.926;8.608;2023-02-12T15:38:30;16.00;65.10
4306;DHT22;2166;49.926;8.608;2023-02-12T15:41:02;15.80;65.80
4306;DHT22;2166;49.926;8.608;2023-02-12T15:43:32;15.60;66.50
4306;DHT22;2166;49.926;8.608;2023-02-12T15:46:01;15.20;67.40
4306;DHT22;2166;49.926;8.608;2023-02-12T15:48:30;15.00;68.20
4306;DHT22;2166;49.926;8.608;2023-02-12T15:51:01;14.80;68.40
4306;DHT22;2166;49.926;8.608;2023-02-12T15:53:32;14.60;69.10
4306;DHT22;2166;49.926;8.608;2023-02-12T15:56:04;14.40;69.60
4306;DHT22;2166;49.926;8.608;2023-02-12T15:58:39;14.20;70.00
4306;DHT22;2166;49.926;8.608;2023-02-12T16:01:12;14.10;70.20
4306;DHT22;2166;49.926;8.608;2023-02-12T16:03:42;13.80;70.70
4306;DHT22;2166;49.926;8.608;2023-02-12T16:06:12;13.50;71.40
4306;DHT22;2166;49.926;8.608;2023-02-12T16:08:45;13.10;72.00
4306;DHT22;2166;49.926;8.608;2023-02-12T16:11:18;12.70;72.80
4306;DHT22;2166;49.926;8.608;2023-02-12T16:13:47;12.30;73.20
4306;DHT22;2166;49.926;8.608;2023-02-12T16:16:18;11.90;73.30
4306;DHT22;2166;49.926;8.608;2023-02-12T16:19:01;11.60;73.50
4306;DHT22;2166;49.926;8.608;2023-02-12T16:21:30;11.30;73.80
4306;DHT22;2166;49.926;8.608;2023-02-12T16:24:01;11.00;74.30
4306;DHT22;2166;49.926;8.608;2023-02-12T16:26:33;10.70;74.80
4306;DHT22;2166;49.926;8.608;2023-02-12T16:29:01;10.50;75.20
4306;DHT22;2166;49.926;8.608;2023-02-12T16:31:30;10.20;75.70
4306;DHT22;2166;49.926;8.608;2023-02-12T16:33:59;10.00;76.20
4306;DHT22;2166;49.926;8.608;2023-02-12T16:36:31;9.80;76.50
4306;DHT22;2166;49.926;8.608;2023-02-12T16:39:01;9.60;77.00
4306;DHT22;2166;49.926;8.608;2023-02-12T16:41:31;9.40;77.30
4306;DHT22;2166;49.926;8.608;2023-02-12T16:46:51;9.10;78.00
4306;DHT22;2166;49.926;8.608;2023-02-12T16:49:24;8.90;78.20
4306;DHT22;2166;49.926;8.608;2023-02-12T16:52:07;8.70;78.80
4306;DHT22;2166;49.926;8.608;2023-02-12T16:54:47;8.60;79.00
4306;DHT22;2166;49.926;8.608;2023-02-12T16:57:16;8.40;79.30
4306;DHT22;2166;49.926;8.608;2023-02-12T16:59:45;8.40;79.70
4306;DHT22;2166;49.926;8.608;2023-02-12T17:02:16;8.20;79.80
4306;DHT22;2166;49.926;8.608;2023-02-12T17:04:45;8.20;80.00
4306;DHT22;2166;49.926;8.608;2023-02-12T17:07:15;8.10;80.10
4306;DHT22;2166;49.926;8.608;2023-02-12T17:09:45;7.90;80.30
4306;DHT22;2166;49.926;8.608;2023-02-12T17:12:14;7.90;80.40
4306;DHT22;2166;49.926;8.608;2023-02-12T17:14:43;7.80;80.40
4306;DHT22;2166;49.926;8.608;2023-02-12T17:17:11;7.70;80.40